Time;durP1;ratioP1;P1;durP2;ratioP2;P2;SDS_P1;SDS_P2;PMS_P1;PMS_P2;Temp;Humidity;BMP_temperature;BMP_pressure;BME280_temperature;BME280_humidity;BME280_pressure;Samples;Min_cycle;Max_cycle;Signal;HPM_P1;HPM_P2
2021/03/11 00:00:06;;;;;;;18.93;17.07;;;;;;;6.59;77.01;99555.00;5060720;28;20284;-80
2021/03/11 00:02:32;;;;;;;17.60;16.00;;;;;;;6.45;77.27;99568.19;5076615;28;20197;-79
2021/03/11 00:04:58;;;;;;;18.07;16.23;;;;;;;6.43;77.95;99539.69;5076442;28;20261;-79
2021/03/11 00:07:25;;;;;;;18.30;16.60;;;;;;;6.29;78.70;99537.31;5075994;28;20340;-81
2021/03/11 00:09:51;;;;;;;17.83;16.23;;;;;;;6.35;78.42;99531.19;5076511;28;20196;-80
2021/03/11 00:12:17;;;;;;;16.93;15.13;;;;;;;6.32;78.57;99533.81;5072212;28;20224;-79
2021/03/11 00:14:43;;;;;;;18.00;16.40;;;;;;;6.37;77.81;99524.25;5068720;28;20294;-80
2021/03/11 00:17:09;;;;;;;16.63;15.03;;;;;;;6.35;77.83;99523.41;5074955;28;20280;-79
2021/03/11 00:19:35;;;;;;;17.97;16.20;;;;;;;6.27;77.60;99518.34;5074018;28;20208;-80
2021/03/11 00:22:01;;;;;;;18.03;16.23;;;;;;;6.26;77.79;99516.63;5073664;28;20288;-80
2021/03/11 00:24:29;;;;;;;17.10;15.47;;;;;;;6.19;78.89;99512.44;5074307;28;20211;-79
2021/03/11 00:26:55;;;;;;;16.03;14.53;;;;;;;6.18;78.43;99497.75;5066587;28;20316;-79
2021/03/11 00:29:21;;;;;;;17.63;15.53;;;;;;;6.15;78.88;99483.13;5074038;28;20204;-79
2021/03/11 00:31:47;;;;;;;16.37;14.87;;;;;;;6.09;79.53;99487.56;5065968;28;20197;-79
2021/03/11 00:34:12;;;;;;;19.00;16.67;;;;;;;5.98;79.63;99482.53;5071016;28;20232;-80
2021/03/11 00:36:39;;;;;;;17.60;15.53;;;;;;;5.98;80.50;99479.94;5065908;28;20231;-78
2021/03/11 00:39:06;;;;;;;18.03;16.33;;;;;;;5.95;80.77;99467.06;5071564;28;20196;-78
2021/03/11 00:41:33;;;;;;;16.50;14.93;;;;;;;6.01;80.43;99463.53;5057659;28;20270;-78
2021/03/11 00:43:59;;;;;;;18.67;16.83;;;;;;;5.95;80.84;99459.28;5073515;28;20750;-79
2021/03/11 00:46:24;;;;;;;16.77;15.17;;;;;;;5.84;80.44;99455.97;5073175;28;20228;-79
2021/03/11 00:48:50;;;;;;;19.23;15.70;;;;;;;5.92;80.98;99448.94;5074846;28;20212;-80
2021/03/11 00:51:16;;;;;;;16.57;15.07;;;;;;;5.97;80.79;99432.47;5076436;28;20201;-79
2021/03/11 00:53:42;;;;;;;16.33;14.83;;;;;;;5.86;81.31;99430.91;5074773;28;20205;-79
2021/03/11 00:56:10;;;;;;;17.07;15.37;;;;;;;5.86;81.59;99417.94;5077052;28;20281;-79
2021/03/11 00:58:36;;;;;;;18.20;16.37;;;;;;;5.77;82.73;99406.03;5073152;28;20202;-79
2021/03/11 01:01:04;;;;;;;19.77;17.00;;;;;;;5.77;82.51;99408.59;5062496;28;20727;-77
2021/03/11 01:03:30;;;;;;;17.03;15.17;;;;;;;5.82;81.62;99396.41;5073424;28;20677;-79
2021/03/11 01:05:56;;;;;;;16.87;15.37;;;;;;;5.83;81.56;99399.84;5076603;28;20192;-80
2021/03/11 01:08:22;;;;;;;18.30;14.87;;;;;;;5.80;81.68;99392.16;5076645;28;20315;-80
2021/03/11 01:10:48;;;;;;;16.97;15.20;;;;;;;5.62;82.16;99386.38;5074419;28;20203;-80
2021/03/11 01:13:14;;;;;;;16.33;14.83;;;;;;;5.57;82.33;99378.72;5072405;28;20227;-80
2021/03/11 01:15:43;;;;;;;17.33;15.70;;;;;;;5.57;82.56;99378.72;5076116;28;20212;-80
2021/03/11 01:18:10;;;;;;;17.07;15.53;;;;;;;5.39;82.73;99371.19;5071714;28;20224;-80
2021/03/11 01:20:36;;;;;;;16.33;14.77;;;;;;;5.53;82.86;99364.09;5064780;28;20204;-80
2021/03/11 01:23:03;;;;;;;17.07;15.37;;;;;;;5.54;82.48;99352.00;5069531;28;20224;-80
2021/03/11 01:25:29;;;;;;;16.73;15.13;;;;;;;5.56;82.78;99337.31;5068795;28;20205;-80
2021/03/11 01:27:55;;;;;;;17.87;16.23;;;;;;;5.55;83.54;99328.69;5063315;28;20610;-79
2021/03/11 01:30:22;;;;;;;16.20;14.77;;;;;;;5.49;83.02;99302.03;5076629;28;20253;-80
2021/03/11 01:32:49;;;;;;;18.27;15.03;;;;;;;5.53;83.34;99302.00;5074508;28;20281;-78
2021/03/11 01:35:15;;;;;;;15.73;14.23;;;;;;;5.50;83.43;99299.44;5076589;28;20200;-78
2021/03/11 01:37:41;;;;;;;16.67;15.13;;;;;;;5.48;82.82;99290.84;5061605;28;20231;-78
2021/03/11 01:40:08;;;;;;;15.87;14.37;;;;;;;5.52;82.45;99276.97;5076383;28;20201;-78
2021/03/11 01:42:35;;;;;;;17.20;15.07;;;;;;;5.50;82.72;99265.78;5076108;28;20571;-79
2021/03/11 01:45:01;;;;;;;17.70;16.00;;;;;;;5.63;83.10;99245.75;5076468;28;20214;-79
2021/03/11 01:47:27;;;;;;;17.47;15.87;;;;;;;5.51;82.81;99248.53;5070342;28;20239;-79
2021/03/11 01:49:54;;;;;;;18.63;16.43;;;;;;;5.56;82.88;99236.34;5075743;28;20203;-78
2021/03/11 01:52:20;;;;;;;17.10;15.50;;;;;;;5.60;83.15;99250.09;5069800;28;20206;-80
2021/03/11 01:54:46;;;;;;;18.43;16.80;;;;;;;5.57;82.67;99230.31;5074412;28;20213;-79
2021/03/11 01:57:12;;;;;;;18.00;15.93;;;;;;;5.56;83.35;99226.84;5074184;28;20702;-80
2021/03/11 01:59:39;;;;;;;17.87;15.60;;;;;;;5.53;82.15;99216.56;5075457;28;20208;-79
2021/03/11 02:02:05;;;;;;;18.70;17.00;;;;;;;5.57;82.79;99217.38;5067584;28;20236;-80
2021/03/11 02:04:31;;;;;;;17.93;15.97;;;;;;;5.51;81.91;99214.88;5075913;28;20211;-78
2021/03/11 02:06:58;;;;;;;18.77;16.87;;;;;;;5.60;82.93;99193.16;5074828;28;20220;-79
2021/03/11 02:09:24;;;;;;;17.57;15.87;;;;;;;5.61;81.84;99190.56;5076212;28;20205;-80
2021/03/11 02:11:58;;;;;;;17.53;15.87;;;;;;;5.67;81.86;99187.84;5074454;28;20196;-78
2021/03/11 02:14:30;;;;;;;17.63;16.03;;;;;;;5.63;81.49;99181.03;5071680;28;20231;-79
2021/03/11 02:16:59;;;;;;;17.40;15.73;;;;;;;5.69;82.18;99175.72;5074656;28;20707;-77
2021/03/11 02:19:42;;;;;;;18.47;16.67;;;;;;;5.74;82.74;99168.69;5071115;28;20558;-78
2021/03/11 02:22:16;;;;;;;17.23;15.63;;;;;;;5.79;82.37;99142.72;5069342;28;20616;-79
2021/03/11 02:24:51;;;;;;;17.50;15.97;;;;;;;5.89;82.13;99133.03;5073774;28;20261;-79
2021/03/11 02:27:35;;;;;;;18.30;16.60;;;;;;;5.79;81.72;99109.06;5076238;28;20216;-78
2021/03/11 02:30:04;;;;;;;18.00;16.50;;;;;;;5.86;81.27;99113.22;5075962;28;20196;-79
2021/03/11 02:32:32;;;;;;;17.77;15.53;;;;;;;5.83;81.72;99108.13;5075352;28;20209;-79
2021/03/11 02:35:00;;;;;;;17.70;15.97;;;;;;;5.83;80.69;99107.25;5070464;28;20244;-80
2021/03/11 02:37:30;;;;;;;17.70;16.00;;;;;;;5.85;81.26;99090.81;5064997;28;20239;-79
2021/03/11 02:39:59;;;;;;;16.80;15.20;;;;;;;5.86;81.48;99094.25;5075134;28;20200;-79
2021/03/11 02:42:26;;;;;;;17.83;16.33;;;;;;;5.92;80.81;99068.22;5075030;28;20239;-78
2021/03/11 02:44:53;;;;;;;17.27;15.77;;;;;;;5.81;81.23;99080.53;5075217;28;20205;-78
2021/03/11 02:47:21;;;;;;;15.43;13.93;;;;;;;5.83;81.41;99061.50;5075067;28;20231;-79
2021/03/11 02:49:48;;;;;;;16.40;14.73;;;;;;;5.80;81.74;99053.78;5074943;28;20618;-78
2021/03/11 02:52:15;;;;;;;17.20;15.50;;;;;;;5.89;80.84;99048.44;5068781;28;20195;-79
2021/03/11 02:54:43;;;;;;;16.57;14.97;;;;;;;5.91;80.24;99025.09;5074616;28;20204;-78
2021/03/11 02:57:12;;;;;;;16.50;15.13;;;;;;;5.92;80.32;99031.97;5058088;28;20601;-79
2021/03/11 02:59:39;;;;;;;16.03;14.33;;;;;;;5.88;79.96;99026.00;5072119;28;20225;-80
2021/03/11 03:02:05;;;;;;;16.00;14.50;;;;;;;5.91;79.72;99022.50;5073810;28;20641;-80
2021/03/11 03:04:34;;;;;;;15.23;13.73;;;;;;;5.96;79.79;99012.91;5074700;28;20207;-80
2021/03/11 03:07:01;;;;;;;16.27;14.03;;;;;;;5.97;79.92;99002.50;5075353;28;20234;-77
2021/03/11 03:09:27;;;;;;;15.83;14.47;;;;;;;5.96;78.99;98987.00;5068835;28;20666;-80
2021/03/11 03:11:54;;;;;;;16.03;14.43;;;;;;;6.03;79.80;98979.97;5063959;28;20195;-81
2021/03/11 03:14:21;;;;;;;14.87;13.53;;;;;;;6.05;79.73;98994.56;5071414;28;20194;-79
2021/03/11 03:16:48;;;;;;;14.10;12.60;;;;;;;6.04;79.97;98955.75;5069671;28;20640;-80
2021/03/11 03:19:15;;;;;;;14.00;12.77;;;;;;;6.08;79.77;98934.06;5074626;28;20196;-78
2021/03/11 03:21:43;;;;;;;15.33;13.73;;;;;;;6.05;79.33;98960.91;5072982;28;20728;-80
2021/03/11 03:24:11;;;;;;;14.43;13.03;;;;;;;6.04;79.12;98966.09;5067304;28;20689;-79
2021/03/11 03:26:37;;;;;;;14.70;13.30;;;;;;;6.05;79.76;98926.38;5067772;28;20224;-80
2021/03/11 03:29:04;;;;;;;15.83;14.23;;;;;;;6.03;79.68;98935.94;5074535;28;20197;-80
2021/03/11 03:31:31;;;;;;;14.80;13.50;;;;;;;6.05;79.50;98945.34;5073775;28;20668;-79
2021/03/11 03:33:57;;;;;;;14.47;13.17;;;;;;;6.05;79.67;98927.22;5074747;28;20201;-80
2021/03/11 03:36:23;;;;;;;14.23;12.83;;;;;;;6.10;79.62;98922.75;5074180;28;20703;-79
2021/03/11 03:38:49;;;;;;;14.50;13.03;;;;;;;6.11;79.36;98895.13;5074727;28;20587;-78
2021/03/11 03:41:17;;;;;;;15.23;13.83;;;;;;;6.14;79.04;98887.25;5067221;28;20560;-77
2021/03/11 03:43:45;;;;;;;15.63;14.03;;;;;;;6.16;78.77;98882.91;5073745;28;20220;-79
2021/03/11 03:46:14;;;;;;;14.47;13.17;;;;;;;6.20;78.95;98892.28;5075125;28;20243;-80
2021/03/11 03:48:43;;;;;;;14.80;13.30;;;;;;;6.21;78.88;98877.63;5073319;28;20716;-79
2021/03/11 03:51:11;;;;;;;14.30;13.00;;;;;;;6.21;78.36;98877.63;5074968;28;20204;-79
2021/03/11 03:53:40;;;;;;;14.70;13.40;;;;;;;6.27;79.14;98885.22;5073653;28;20567;-80
2021/03/11 03:56:12;;;;;;;14.20;13.00;;;;;;;6.22;78.89;98887.91;5074554;28;20204;-80
2021/03/11 03:58:39;;;;;;;14.00;12.67;;;;;;;6.25;78.56;98879.22;5055841;28;20661;-81
2021/03/11 04:01:06;;;;;;;13.93;12.63;;;;;;;6.28;79.06;98864.47;5054102;28;20690;-78
2021/03/11 04:03:33;;;;;;;15.10;13.30;;;;;;;6.29;78.66;98855.78;5073273;28;20350;-79
2021/03/11 04:06:00;;;;;;;13.57;12.37;;;;;;;6.34;78.90;98856.50;5074440;28;20702;-80
2021/03/11 04:08:28;;;;;;;14.47;13.17;;;;;;;6.35;78.91;98865.97;5066213;28;20232;-78
2021/03/11 04:10:56;;;;;;;14.30;13.10;;;;;;;6.28;78.90;98858.41;5065941;28;20205;-78
2021/03/11 04:13:24;;;;;;;14.37;12.97;;;;;;;6.33;78.72;98857.38;5073941;28;20659;-80
2021/03/11 04:15:50;;;;;;;13.67;12.43;;;;;;;6.34;79.26;98853.94;5074280;28;20237;-80
2021/03/11 04:18:17;;;;;;;14.43;13.13;;;;;;;6.30;78.18;98839.34;5072870;28;20224;-79
2021/03/11 04:20:44;;;;;;;13.13;11.80;;;;;;;6.32;79.05;98837.56;5074914;28;20199;-79
2021/03/11 04:23:11;;;;;;;12.60;11.40;;;;;;;6.31;78.76;98819.47;5070303;28;20220;-80
2021/03/11 04:25:37;;;;;;;13.00;11.83;;;;;;;6.26;79.18;98842.88;5073542;28;20200;-80
2021/03/11 04:28:04;;;;;;;12.77;11.67;;;;;;;6.29;78.59;98824.69;5072209;28;20223;-77
2021/03/11 04:30:31;;;;;;;13.37;12.07;;;;;;;6.39;79.11;98814.06;5071464;28;20209;-80
2021/03/11 04:32:57;;;;;;;13.60;12.23;;;;;;;6.36;78.57;98826.22;5072454;28;20234;-79
2021/03/11 04:35:23;;;;;;;13.77;12.47;;;;;;;6.39;78.84;98819.25;5074972;28;20252;-79
2021/03/11 04:37:49;;;;;;;12.10;10.90;;;;;;;6.40;78.17;98844.25;5072260;28;20224;-79
2021/03/11 04:40:17;;;;;;;11.43;10.43;;;;;;;6.42;78.95;98842.47;5078291;28;20208;-78
2021/03/11 04:42:43;;;;;;;12.77;11.57;;;;;;;6.40;78.73;98831.31;5076964;28;20277;-78
2021/03/11 04:45:10;;;;;;;12.23;10.97;;;;;;;6.45;77.70;98819.06;5078051;28;20210;-78
2021/03/11 04:47:38;;;;;;;12.80;11.70;;;;;;;6.44;78.11;98826.00;5076793;28;20239;-79
2021/03/11 04:50:06;;;;;;;12.30;11.10;;;;;;;6.51;78.53;98834.47;5077236;28;20204;-79
2021/03/11 04:52:33;;;;;;;12.07;11.07;;;;;;;6.51;78.40;98827.53;5077920;28;20561;-78
2021/03/11 04:55:00;;;;;;;12.13;11.07;;;;;;;6.54;77.95;98827.44;5070055;28;20208;-80
2021/03/11 04:57:27;;;;;;;11.90;10.90;;;;;;;6.54;77.45;98821.38;5077996;28;20254;-79
2021/03/11 04:59:53;;;;;;;10.87;9.87;;;;;;;6.59;77.53;98842.84;5076856;28;20686;-80
2021/03/11 05:02:20;;;;;;;12.20;11.10;;;;;;;6.66;77.58;98817.59;5077016;28;20223;-79
2021/03/11 05:04:47;;;;;;;10.90;10.00;;;;;;;6.65;78.19;98815.91;5077974;28;20225;-79
2021/03/11 05:07:14;;;;;;;11.50;10.50;;;;;;;6.63;77.55;98809.91;5077831;28;20240;-79
2021/03/11 05:09:40;;;;;;;11.77;10.77;;;;;;;6.67;78.04;98795.97;5076714;28;20201;-79
2021/03/11 05:12:07;;;;;;;10.70;9.80;;;;;;;6.64;77.64;98798.66;5069045;28;20572;-79
2021/03/11 05:14:33;;;;;;;10.43;9.63;;;;;;;6.69;77.23;98810.59;5077471;28;20247;-79
2021/03/11 05:16:59;;;;;;;11.10;10.10;;;;;;;6.68;77.50;98803.72;5077267;28;20656;-79
2021/03/11 05:19:24;;;;;;;9.50;8.67;;;;;;;6.71;77.52;98789.81;5076284;28;20263;-80
2021/03/11 05:21:51;;;;;;;11.23;10.23;;;;;;;6.63;78.31;98796.97;5075620;28;20227;-80
2021/03/11 05:24:17;;;;;;;11.20;10.17;;;;;;;6.72;78.22;98799.28;5077368;28;20193;-80
2021/03/11 05:26:43;;;;;;;10.27;9.47;;;;;;;6.73;78.43;98790.59;5076072;28;20250;-80
2021/03/11 05:29:09;;;;;;;10.97;9.93;;;;;;;6.70;78.50;98783.78;5076731;28;20279;-80
2021/03/11 05:31:35;;;;;;;10.23;9.37;;;;;;;6.68;78.92;98780.38;5061800;28;20250;-80
2021/03/11 05:34:01;;;;;;;9.63;8.87;;;;;;;6.71;78.14;98777.69;5076355;28;20204;-80
2021/03/11 05:36:27;;;;;;;9.80;8.93;;;;;;;6.74;79.19;98781.94;5076982;28;20232;-80
2021/03/11 05:38:54;;;;;;;10.83;9.80;;;;;;;6.71;79.02;98759.53;5077355;28;20274;-81
2021/03/11 05:41:22;;;;;;;9.67;8.77;;;;;;;6.75;78.30;98755.94;5076714;28;20216;-79
2021/03/11 05:43:51;;;;;;;9.53;8.57;;;;;;;6.79;78.26;98761.88;5068708;28;20251;-80
2021/03/11 05:46:18;;;;;;;10.03;9.13;;;;;;;6.84;79.19;98757.44;5073319;28;20679;-80
2021/03/11 05:48:45;;;;;;;9.43;8.53;;;;;;;6.86;79.05;98754.78;5085068;22;20232;-77
2021/03/11 05:51:12;;;;;;;10.23;9.23;;;;;;;6.80;79.15;98771.38;5076808;28;20695;-77
2021/03/11 05:53:38;;;;;;;9.60;8.70;;;;;;;6.84;79.07;98759.16;5074557;28;20211;-77
2021/03/11 05:56:06;;;;;;;8.60;7.90;;;;;;;6.82;79.21;98750.56;5071238;28;20586;-77
2021/03/11 05:58:33;;;;;;;8.87;8.07;;;;;;;6.83;79.26;98747.09;5069301;28;20217;-76
2021/03/11 06:00:59;;;;;;;9.43;8.63;;;;;;;6.82;80.07;98768.72;5054288;28;20200;-77
2021/03/11 06:03:27;;;;;;;9.43;8.53;;;;;;;6.76;80.89;98752.47;5054234;28;20234;-77
2021/03/11 06:05:53;;;;;;;10.27;9.27;;;;;;;6.69;81.53;98796.78;5059425;28;20576;-78
2021/03/11 06:08:22;;;;;;;9.40;8.60;;;;;;;6.67;82.42;98776.06;5074542;28;20212;-77
2021/03/11 06:10:53;;;;;;;9.67;8.87;;;;;;;6.69;82.50;98773.44;5055344;28;20201;-78
2021/03/11 06:13:22;;;;;;;9.37;8.57;;;;;;;6.58;83.36;98760.81;5056515;28;20201;-78
2021/03/11 06:15:50;;;;;;;10.10;9.20;;;;;;;6.54;84.39;98749.69;5058389;28;20211;-77
2021/03/11 06:18:18;;;;;;;10.17;9.27;;;;;;;6.52;84.59;98742.81;5065631;28;20212;-77
2021/03/11 06:20:44;;;;;;;10.33;9.43;;;;;;;6.51;85.42;98743.72;5060134;28;20199;-76
2021/03/11 06:23:10;;;;;;;10.80;9.80;;;;;;;6.49;85.92;98742.94;5068650;28;20294;-77
2021/03/11 06:25:38;;;;;;;10.70;9.80;;;;;;;6.45;85.29;98720.59;5051225;28;20206;-77
2021/03/11 06:28:04;;;;;;;9.90;9.10;;;;;;;6.48;85.71;98734.31;5053604;28;20220;-76
2021/03/11 06:30:33;;;;;;;9.90;9.03;;;;;;;6.56;84.82;98718.50;5055111;28;20227;-77
2021/03/11 06:32:59;;;;;;;9.60;8.70;;;;;;;6.57;85.26;98721.06;5053547;28;20204;-77
2021/03/11 06:35:25;;;;;;;9.73;8.83;;;;;;;6.61;84.34;98724.41;5056267;28;20213;-77
2021/03/11 06:37:51;;;;;;;9.50;8.70;;;;;;;6.63;84.36;98712.25;5067261;28;20208;-77
2021/03/11 06:40:19;;;;;;;10.20;9.30;;;;;;;6.67;84.38;98698.28;5055882;28;20638;-77
2021/03/11 06:42:46;;;;;;;9.80;9.00;;;;;;;6.69;84.56;98708.63;5052226;28;20229;-78
2021/03/11 06:45:24;;;;;;;10.20;9.30;;;;;;;6.71;84.81;98696.47;5053099;28;20719;-77
2021/03/11 06:47:52;;;;;;;9.97;9.07;;;;;;;6.68;84.42;98717.28;5053213;28;20204;-77
2021/03/11 06:50:21;;;;;;;10.37;9.40;;;;;;;6.68;84.60;98683.56;5053644;28;20308;-76
2021/03/11 06:53:01;;;;;;;10.93;9.93;;;;;;;6.73;84.74;98676.50;5051895;28;20212;-77
2021/03/11 06:55:27;;;;;;;10.30;9.40;;;;;;;6.74;84.30;98663.50;5051539;28;20577;-77
2021/03/11 06:57:54;;;;;;;10.30;9.43;;;;;;;6.71;84.44;98675.72;5053855;28;20197;-77
2021/03/11 07:00:22;;;;;;;10.47;9.47;;;;;;;6.71;84.10;98673.97;5049320;28;20295;-77
2021/03/11 07:02:53;;;;;;;10.27;9.27;;;;;;;6.69;83.57;98677.50;5051998;28;20227;-77
2021/03/11 07:05:20;;;;;;;10.07;9.17;;;;;;;6.74;84.42;98668.69;5049506;28;20205;-77
2021/03/11 07:07:47;;;;;;;10.10;9.10;;;;;;;6.74;84.53;98665.25;5052334;28;20600;-77
2021/03/11 07:10:27;;;;;;;10.43;9.53;;;;;;;6.78;84.68;98658.22;5051719;28;20220;-77
2021/03/11 07:12:54;;;;;;;10.73;9.80;;;;;;;6.78;84.80;98663.38;5053938;28;20658;-76
2021/03/11 07:15:22;;;;;;;11.30;10.23;;;;;;;6.78;84.95;98677.22;5051958;28;20207;-76
2021/03/11 07:17:49;;;;;;;9.47;8.70;;;;;;;6.78;85.05;98653.88;5052596;28;20209;-76
2021/03/11 07:20:17;;;;;;;10.93;9.83;;;;;;;6.82;85.80;98650.31;5053675;28;20224;-77
2021/03/11 07:23:03;;;;;;;10.67;9.67;;;;;;;6.73;85.71;98655.78;5054210;28;20233;-76
2021/03/11 07:25:31;;;;;;;9.60;8.80;;;;;;;6.78;85.50;98658.22;5050726;28;20220;-77
2021/03/11 07:27:57;;;;;;;9.87;9.07;;;;;;;6.82;85.88;98659.81;5053824;28;20209;-76
2021/03/11 07:30:25;;;;;;;9.33;8.43;;;;;;;6.85;85.25;98664.91;5053573;28;20231;-76
2021/03/11 07:32:57;;;;;;;9.73;8.93;;;;;;;6.85;85.12;98663.16;5053979;28;20204;-76
2021/03/11 07:35:26;;;;;;;9.33;8.47;;;;;;;6.89;85.78;98653.53;5050505;28;20207;-76
2021/03/11 07:37:53;;;;;;;7.47;6.87;;;;;;;6.94;84.67;98659.44;5053786;28;20672;-76
2021/03/11 07:40:20;;;;;;;8.37;7.60;;;;;;;7.03;84.51;98664.28;5052120;28;20236;-77
2021/03/11 07:42:46;;;;;;;7.53;6.93;;;;;;;7.06;84.77;98660.75;5053241;28;20228;-76
2021/03/11 07:45:14;;;;;;;7.73;7.13;;;;;;;7.11;83.95;98653.66;5053108;28;20668;-76
2021/03/11 07:47:41;;;;;;;7.23;6.57;;;;;;;7.15;84.54;98650.06;5052838;28;20204;-76
2021/03/11 07:50:13;;;;;;;6.63;6.13;;;;;;;7.19;83.47;98656.00;5051156;28;20238;-77
2021/03/11 07:52:40;;;;;;;7.07;6.37;;;;;;;7.24;83.78;98661.88;5054846;28;20670;-77
2021/03/11 07:55:09;;;;;;;6.90;6.30;;;;;;;7.30;83.62;98651.31;5056913;28;20580;-77
2021/03/11 07:57:40;;;;;;;6.13;5.63;;;;;;;7.31;83.31;98659.03;5052259;28;20209;-77
2021/03/11 08:00:10;;;;;;;5.87;5.37;;;;;;;7.38;82.54;98651.88;5047046;28;20291;-76
2021/03/11 08:02:42;;;;;;;6.03;5.53;;;;;;;7.39;83.14;98640.56;5054672;28;20221;-76
2021/03/11 08:05:10;;;;;;;5.60;5.10;;;;;;;7.41;82.67;98641.38;5050828;28;20255;-77
2021/03/11 08:07:36;;;;;;;5.63;5.20;;;;;;;7.42;82.36;98632.69;5050236;28;20941;-76
2021/03/11 08:10:19;;;;;;;4.73;4.33;;;;;;;7.47;82.50;98627.34;5049715;28;20311;-76
2021/03/11 08:12:45;;;;;;;4.33;3.93;;;;;;;7.59;81.90;98633.84;5052002;28;20201;-76
2021/03/11 08:15:30;;;;;;;4.80;4.40;;;;;;;7.65;81.76;98631.00;5051779;28;20770;-77
2021/03/11 08:17:56;;;;;;;4.60;4.30;;;;;;;7.73;81.60;98624.66;5046649;28;20251;-77
2021/03/11 08:20:41;;;;;;;4.90;4.13;;;;;;;7.74;80.92;98647.13;5048639;28;20646;-77
2021/03/11 08:23:10;;;;;;;4.97;4.57;;;;;;;7.76;81.53;98645.31;5043814;28;20744;-77
2021/03/11 08:25:45;;;;;;;4.13;3.83;;;;;;;7.79;80.28;98633.09;5046818;28;20723;-78
2021/03/11 08:28:37;;;;;;;4.50;4.10;;;;;;;7.78;80.86;98621.88;5053671;28;20199;-77
2021/03/11 08:31:05;;;;;;;4.40;4.10;;;;;;;7.83;81.15;98626.91;5051083;28;20602;-78
2021/03/11 08:33:55;;;;;;;4.03;3.73;;;;;;;7.87;80.58;98620.69;5052053;28;20202;-77
2021/03/11 08:36:38;;;;;;;3.83;3.53;;;;;;;7.88;80.80;98625.00;5048021;28;20231;-77
2021/03/11 08:39:20;;;;;;;3.63;3.33;;;;;;;7.93;81.42;98610.09;5045555;28;20255;-77
2021/03/11 08:41:47;;;;;;;3.67;3.37;;;;;;;8.04;79.74;98596.69;5031863;28;20201;-77
2021/03/11 08:44:13;;;;;;;4.03;3.63;;;;;;;8.10;80.21;98599.88;5049565;28;20237;-77
2021/03/11 08:46:51;;;;;;;3.43;3.13;;;;;;;8.10;80.00;98596.44;5051594;28;20208;-78
2021/03/11 08:49:42;;;;;;;3.50;3.00;;;;;;;8.15;79.62;98586.72;5050501;28;20239;-77
2021/03/11 08:52:44;;;;;;;3.53;3.23;;;;;;;8.25;79.72;98575.06;5032543;28;20328;-77
2021/03/11 08:55:29;;;;;;;3.23;3.03;;;;;;;8.26;79.05;98578.50;5049664;28;20782;-77
2021/03/11 08:57:56;;;;;;;3.13;2.93;;;;;;;8.30;79.08;98564.47;5054134;28;20215;-78
2021/03/11 09:00:56;;;;;;;3.23;2.90;;;;;;;8.31;79.54;98569.63;5049593;28;20231;-78
2021/03/11 09:03:42;;;;;;;3.47;3.03;;;;;;;8.39;78.00;98573.66;5044504;28;20229;-76
2021/03/11 09:06:10;;;;;;;2.63;2.43;;;;;;;8.38;78.54;98571.97;5050621;28;20213;-76
2021/03/11 09:08:37;;;;;;;3.13;2.70;;;;;;;8.37;78.09;98557.28;5051995;28;20236;-76
2021/03/11 09:11:11;;;;;;;2.47;2.27;;;;;;;8.40;78.89;98564.94;5053510;28;20202;-77
2021/03/11 09:13:41;;;;;;;2.83;2.63;;;;;;;8.39;78.60;98555.47;5056938;28;20557;-76
2021/03/11 09:16:07;;;;;;;2.70;2.50;;;;;;;8.38;77.54;98549.41;5052591;28;20208;-77
2021/03/11 09:18:34;;;;;;;2.73;2.53;;;;;;;8.47;78.34;98563.84;5057510;28;20590;-77
2021/03/11 09:21:24;;;;;;;;;;;;;;;;;;;;;
2021/03/11 09:23:50;;;;;;;2.83;2.57;;;;;;;8.43;78.12;98559.66;5048707;28;20229;-76
2021/03/11 09:26:25;;;;;;;3.33;2.30;;;;;;;8.46;78.25;98560.41;5056851;28;20219;-76
2021/03/11 09:28:52;;;;;;;2.97;2.77;;;;;;;8.48;78.70;98536.91;5058210;28;20611;-76
2021/03/11 09:31:22;;;;;;;2.77;2.57;;;;;;;8.51;78.41;98534.19;5054017;28;20201;-75
2021/03/11 09:33:48;;;;;;;2.97;2.67;;;;;;;8.54;78.36;98549.66;5053538;28;20216;-76
2021/03/11 09:36:16;;;;;;;2.63;2.43;;;;;;;8.69;79.65;98523.03;5052811;28;20218;-76
2021/03/11 09:38:42;;;;;;;2.80;2.60;;;;;;;8.78;78.07;98523.53;5052355;28;20566;-75
2021/03/11 09:41:08;;;;;;;2.43;2.23;;;;;;;8.86;77.91;98516.25;5053179;28;20850;-75
2021/03/11 09:43:36;;;;;;;2.80;2.60;;;;;;;8.96;79.45;98486.34;5051495;28;20248;-76
2021/03/11 09:46:08;;;;;;;2.37;2.20;;;;;;;9.08;76.96;98487.56;5055826;28;20205;-77
2021/03/11 09:48:35;;;;;;;2.37;2.03;;;;;;;9.12;76.60;98508.16;5053285;28;20229;-77
2021/03/11 09:51:04;;;;;;;2.63;2.40;;;;;;;9.23;75.85;98488.63;5055039;28;20198;-76
2021/03/11 09:53:39;;;;;;;2.87;2.23;;;;;;;9.36;76.64;98474.13;5053060;28;20201;-77
2021/03/11 09:56:07;;;;;;;1.93;1.83;;;;;;;9.51;75.15;98463.03;5053164;28;20197;-76
2021/03/11 09:58:33;;;;;;;10.80;9.57;;;;;;;9.66;74.96;98450.19;5053652;28;20228;-76
2021/03/11 10:00:59;;;;;;;2.67;2.47;;;;;;;9.78;73.71;98441.78;5053241;28;20198;-76
2021/03/11 10:03:27;;;;;;;2.30;2.10;;;;;;;10.04;72.51;98437.91;5057306;28;20232;-76
2021/03/11 10:05:58;;;;;;;2.00;1.90;;;;;;;10.23;73.63;98419.59;5050935;28;20204;-76
2021/03/11 10:08:28;;;;;;;1.83;1.73;;;;;;;10.21;72.77;98428.41;5055069;28;20208;-77
2021/03/11 10:11:02;;;;;;;1.90;1.80;;;;;;;10.18;72.24;98381.66;5052189;28;21899;-76
2021/03/11 10:13:36;;;;;;;1.80;1.70;;;;;;;10.22;71.84;98419.66;5053019;28;20198;-76
2021/03/11 10:16:02;;;;;;;2.27;1.60;;;;;;;10.31;72.27;98417.47;5054529;28;20671;-76
2021/03/11 10:18:29;;;;;;;1.87;1.77;;;;;;;10.31;71.87;98382.75;5051688;28;20258;-77
2021/03/11 10:21:03;;;;;;;2.07;1.87;;;;;;;10.33;71.96;98396.56;5057669;28;20209;-77
2021/03/11 10:23:29;;;;;;;1.80;1.60;;;;;;;10.24;72.05;98379.56;5052863;28;20237;-75
2021/03/11 10:26:12;;;;;;;2.27;1.73;;;;;;;10.19;72.05;98383.31;5053053;28;20205;-77
2021/03/11 10:28:40;;;;;;;2.00;1.90;;;;;;;10.15;72.93;98385.25;5050511;28;20229;-76
2021/03/11 10:31:07;;;;;;;1.80;1.70;;;;;;;10.09;72.05;98412.47;5053584;28;20201;-76
2021/03/11 10:33:34;;;;;;;2.03;1.80;;;;;;;10.03;73.08;98397.13;5053857;28;20201;-77
2021/03/11 10:36:13;;;;;;;1.73;1.60;;;;;;;9.98;74.04;98414.75;5058536;28;20269;-77
2021/03/11 10:38:39;;;;;;;2.07;1.87;;;;;;;9.95;74.53;98417.53;5053879;28;20212;-77
2021/03/11 10:41:13;;;;;;;1.90;1.80;;;;;;;9.90;75.59;98411.69;5053911;28;20951;-76
2021/03/11 10:43:41;;;;;;;2.50;1.93;;;;;;;9.81;77.58;98396.50;5052609;28;20221;-78
2021/03/11 10:46:07;;;;;;;2.30;2.10;;;;;;;9.78;78.35;98373.19;5048079;28;20201;-77
2021/03/11 10:48:48;;;;;;;2.60;2.40;;;;;;;9.80;78.76;98380.03;5063249;28;20312;-78
2021/03/11 10:51:20;;;;;;;1.77;1.67;;;;;;;9.75;79.15;98366.34;5053856;28;20613;-76
2021/03/11 10:53:46;;;;;;;2.10;2.00;;;;;;;9.71;78.73;98391.75;5059623;28;20205;-77
2021/03/11 10:56:12;;;;;;;2.00;1.90;;;;;;;9.49;80.78;98394.53;5053832;28;20206;-77
2021/03/11 10:58:39;;;;;;;3.40;2.27;;;;;;;9.50;80.20;98392.78;5048873;28;20222;-76
2021/03/11 11:01:06;;;;;;;3.30;2.50;;;;;;;9.44;80.95;98395.66;5052794;28;20197;-76
2021/03/11 11:03:32;;;;;;;2.50;2.30;;;;;;;9.31;81.67;98414.44;5054778;28;20233;-77
2021/03/11 11:05:59;;;;;;;3.93;2.47;;;;;;;9.33;82.79;98412.59;5054374;28;20208;-78
2021/03/11 11:08:25;;;;;;;3.50;2.53;;;;;;;9.27;83.22;98420.72;5053369;28;20213;-76
2021/03/11 11:10:51;;;;;;;3.23;2.70;;;;;;;9.27;83.93;98432.88;5052213;28;20751;-77
2021/03/11 11:13:18;;;;;;;5.37;4.30;;;;;;;9.36;84.03;98416.00;5054736;28;20213;-78
2021/03/11 11:15:43;;;;;;;3.90;2.90;;;;;;;9.31;85.36;98413.59;5058425;28;20205;-79
2021/03/11 11:18:10;;;;;;;7.73;5.10;;;;;;;9.30;85.26;98409.34;5059052;28;20231;-78
2021/03/11 11:20:36;;;;;;;4.40;3.80;;;;;;;9.29;85.30;98379.81;5054858;28;20215;-77
2021/03/11 11:23:04;;;;;;;2.70;2.40;;;;;;;9.23;86.16;98392.28;5056941;28;20225;-77
2021/03/11 11:25:30;;;;;;;1.60;1.50;;;;;;;9.00;84.01;98383.81;5053407;28;20216;-76
2021/03/11 11:27:56;;;;;;;3.80;2.07;;;;;;;8.86;83.64;98348.00;5052230;28;20244;-78
2021/03/11 11:30:23;;;;;;;3.03;1.57;;;;;;;8.81;82.80;98359.53;5050019;28;20235;-77
2021/03/11 11:32:49;;;;;;;1.47;1.30;;;;;;;8.76;84.07;98344.13;5051799;28;20200;-77
2021/03/11 11:35:16;;;;;;;2.77;1.60;;;;;;;8.83;83.88;98318.69;5056948;28;20208;-76
2021/03/11 11:37:43;;;;;;;1.67;1.03;;;;;;;8.97;84.07;98310.22;5063715;28;20204;-77
2021/03/11 11:40:10;;;;;;;3.27;1.27;;;;;;;9.12;82.85;98317.31;5061213;28;20223;-76